createdAt,value
2023-05-21T00:03:05.299Z,101384.19
2023-05-21T00:08:07.990Z,101397.38
2023-05-21T00:13:10.837Z,101397.72
2023-05-21T00:18:13.278Z,101399.09
2023-05-21T00:23:19.001Z,101389.47
2023-05-21T00:28:21.399Z,101397.44
2023-05-21T00:33:26.706Z,101402.56
2023-05-21T00:38:29.314Z,101396.19
2023-05-21T00:43:32.924Z,101404.31
2023-05-21T00:48:35.752Z,101404.00
2023-05-21T00:53:38.485Z,101408.47
2023-05-21T00:58:41.716Z,101400.59
2023-05-21T01:03:44.679Z,101398.59
2023-05-21T01:08:47.380Z,101392.22
2023-05-21T01:13:51.359Z,101411.88
2023-05-21T01:18:54.251Z,101409.25
2023-05-21T01:23:57.067Z,101414.22
2023-05-21T01:28:59.788Z,101421.91
2023-05-21T01:34:05.939Z,101423.69
2023-05-21T01:39:24.341Z,101428.13
2023-05-21T01:44:27.627Z,101433.91
2023-05-21T01:49:30.804Z,101431.75
2023-05-21T01:54:33.222Z,101435.13
2023-05-21T01:59:36.958Z,101429.00
2023-05-21T02:04:41.754Z,101438.59
2023-05-21T02:09:44.512Z,101433.59
2023-05-21T02:14:50.679Z,101439.47
2023-05-21T02:19:53.293Z,101438.22
2023-05-21T02:24:55.954Z,101430.25
2023-05-21T02:29:58.448Z,101426.03
2023-05-21T02:35:02.213Z,101418.09
2023-05-21T02:40:08.273Z,101425.84
2023-05-21T02:45:13.107Z,101424.91
2023-05-21T02:50:17.950Z,101423.56
2023-05-21T02:55:27.054Z,101429.13
2023-05-21T03:00:29.461Z,101429.94
2023-05-21T03:05:32.055Z,101432.75
2023-05-21T03:10:34.521Z,101434.69
2023-05-21T03:15:39.311Z,101435.66
2023-05-21T03:20:44.684Z,101443.03
2023-05-21T03:25:47.261Z,101440.63
2023-05-21T03:30:51.345Z,101435.13
2023-05-21T03:36:12.335Z,101430.91
2023-05-21T03:41:15.055Z,101438.09
2023-05-21T03:46:21.666Z,101441.16
2023-05-21T03:51:46.275Z,101443.22
2023-05-21T03:56:52.389Z,101451.06
2023-05-21T04:01:55.898Z,101455.94
2023-05-21T04:06:58.559Z,101463.72
2023-05-21T04:12:01.242Z,101461.69
2023-05-21T04:17:06.994Z,101465.03
2023-05-21T04:22:11.112Z,101474.69
2023-05-21T04:27:16.843Z,101484.56
2023-05-21T04:32:20.717Z,101486.53
2023-05-21T04:37:24.995Z,101476.09
2023-05-21T04:42:27.925Z,101480.19
2023-05-21T04:47:35.965Z,101482.31
2023-05-21T04:52:40.689Z,101473.25
2023-05-21T04:57:43.193Z,101473.34
2023-05-21T05:02:45.854Z,101472.69
2023-05-21T05:07:48.532Z,101481.72
2023-05-21T05:12:51.711Z,101490.03
2023-05-21T05:17:55.031Z,101492.78
2023-05-21T05:22:57.466Z,101490.94
2023-05-21T05:28:00.160Z,101492.72
2023-05-21T05:33:02.582Z,101500.50
2023-05-21T05:38:06.184Z,101495.06
2023-05-21T05:43:08.864Z,101486.53
2023-05-21T05:48:12.259Z,101497.31
2023-05-21T05:53:15.028Z,101491.19
2023-05-21T05:58:17.746Z,101504.81
2023-05-21T06:03:31.904Z,101498.81
2023-05-21T06:08:41.160Z,101502.63
2023-05-21T06:13:43.752Z,101499.81
2023-05-21T06:18:46.388Z,101503.97
2023-05-21T06:23:49.087Z,101514.94
2023-05-21T06:28:51.790Z,101505.50
2023-05-21T06:33:54.774Z,101524.97
2023-05-21T06:38:57.723Z,101511.81
2023-05-21T06:44:00.911Z,101517.44
2023-05-21T06:49:35.570Z,101526.28
2023-05-21T06:54:38.624Z,101523.13
2023-05-21T06:59:43.029Z,101524.94
2023-05-21T07:04:45.685Z,101524.53
2023-05-21T07:09:48.253Z,101520.38
2023-05-21T07:14:50.868Z,101519.41
2023-05-21T07:19:53.583Z,101528.97
2023-05-21T07:24:56.056Z,101514.94
2023-05-21T07:29:58.480Z,101522.72
2023-05-21T07:35:04.621Z,101518.31
2023-05-21T07:40:08.571Z,101513.50
2023-05-21T07:45:12.079Z,101514.28
2023-05-21T07:50:18.191Z,101520.44
2023-05-21T07:55:20.903Z,101514.31
2023-05-21T08:00:25.183Z,101501.22
2023-05-21T08:05:32.909Z,101503.72
2023-05-21T08:10:35.472Z,101503.72
2023-05-21T08:15:38.134Z,101498.81
2023-05-21T08:20:41.718Z,101495.50
2023-05-21T08:25:44.755Z,101484.72
2023-05-21T08:30:47.539Z,101494.59
2023-05-21T08:35:51.885Z,101492.28
2023-05-21T08:41:00.410Z,101495.97
2023-05-21T08:46:05.340Z,101493.72
2023-05-21T08:51:11.335Z,101494.13
2023-05-21T08:56:21.572Z,101487.81
2023-05-21T09:01:30.312Z,101464.38
2023-05-21T09:06:41.492Z,101470.53
2023-05-21T09:11:46.742Z,101463.94
2023-05-21T09:16:49.499Z,101462.75
2023-05-21T09:21:53.267Z,101468.09
2023-05-21T09:26:59.483Z,101467.25
2023-05-21T09:32:06.440Z,101462.75
2023-05-21T09:37:20.175Z,101448.44
2023-05-21T09:42:30.357Z,101450.88
2023-05-21T09:47:32.847Z,101447.81
2023-05-21T09:52:38.085Z,101453.03
2023-05-21T09:57:43.011Z,101451.75
2023-05-21T10:02:47.857Z,101430.66
2023-05-21T10:07:52.511Z,101437.22
2023-05-21T10:13:18.565Z,101446.81
2023-05-21T10:18:22.604Z,101438.66
2023-05-21T10:23:25.335Z,101435.03
2023-05-21T10:28:29.719Z,101439.53
2023-05-21T10:33:33.886Z,101426.59
2023-05-21T10:38:38.833Z,101426.75
2023-05-21T10:44:08.758Z,101431.66
2023-05-21T10:49:38.627Z,101415.25
2023-05-21T10:54:50.324Z,101415.59
2023-05-21T10:59:53.427Z,101413.50
2023-05-21T11:05:02.633Z,101416.34
2023-05-21T11:10:34.880Z,101404.84
2023-05-21T11:15:59.036Z,101408.75
2023-05-21T11:21:08.010Z,101403.91
2023-05-21T11:26:10.465Z,101400.63
2023-05-21T11:31:30.667Z,101397.34
2023-05-21T11:36:36.159Z,101392.06
2023-05-21T11:42:11.248Z,101400.22
2023-05-21T11:47:15.508Z,101385.91
2023-05-21T11:52:20.074Z,101381.84
2023-05-21T11:57:23.774Z,101381.00
2023-05-21T12:02:28.971Z,101387.94
2023-05-21T12:07:32.574Z,101373.66
2023-05-21T12:12:50.010Z,101381.38
2023-05-21T12:17:57.333Z,101371.59
2023-05-21T12:22:59.866Z,101376.94
2023-05-21T12:28:03.769Z,101371.53
2023-05-21T12:33:07.418Z,101366.63
2023-05-21T12:38:10.327Z,101371.94
2023-05-21T12:43:13.034Z,101361.72
2023-05-21T12:48:15.574Z,101363.81
2023-05-21T12:53:18.061Z,101360.50
2023-05-21T12:58:22.762Z,101360.13
2023-05-21T13:03:26.916Z,101349.94
2023-05-21T13:08:29.981Z,101346.66
2023-05-21T13:13:32.545Z,101334.81
2023-05-21T13:18:34.994Z,101326.25
2023-05-21T13:23:37.365Z,101321.75
2023-05-21T13:28:42.545Z,101343.00
2023-05-21T13:33:45.380Z,101329.50
2023-05-21T13:38:47.890Z,101333.53
2023-05-21T13:43:50.413Z,101333.53
2023-05-21T13:48:53.003Z,101324.13
2023-05-21T13:53:56.802Z,101325.75
2023-05-21T13:58:59.879Z,101326.56
2023-05-21T14:04:04.697Z,101329.78
2023-05-21T14:09:07.880Z,101328.13
2023-05-21T14:14:10.418Z,101314.16
2023-05-21T14:19:12.977Z,101320.22
2023-05-21T14:24:15.480Z,101322.22
2023-05-21T14:29:17.924Z,101315.72
2023-05-21T14:34:20.453Z,101317.72
2023-05-21T14:39:22.923Z,101318.50
2023-05-21T14:44:25.540Z,101323.41
2023-05-21T14:49:28.062Z,101308.66
2023-05-21T14:54:30.699Z,101326.16
2023-05-21T14:59:33.141Z,101303.69
2023-05-21T15:04:35.825Z,101317.56
2023-05-21T15:09:38.278Z,101312.19
2023-05-21T15:14:42.273Z,101310.44
2023-05-21T15:19:44.850Z,101323.44
2023-05-21T15:24:48.753Z,101320.56
2023-05-21T15:29:51.921Z,101316.41
2023-05-21T15:34:54.524Z,101307.75
2023-05-21T15:39:56.980Z,101325.28
2023-05-21T15:44:59.510Z,101312.97
2023-05-21T15:50:02.004Z,101312.38
2023-05-21T15:55:08.865Z,101320.88
2023-05-21T16:00:12.185Z,101306.53
2023-05-21T16:05:14.682Z,101308.91
2023-05-21T16:10:17.420Z,101311.72
2023-05-21T16:15:19.928Z,101308.75
2023-05-21T16:20:22.408Z,101296.03
2023-05-21T16:25:24.980Z,101296.75
2023-05-21T16:30:27.446Z,101311.78
2023-05-21T16:35:32.205Z,101313.25
2023-05-21T16:40:34.760Z,101307.03
2023-05-21T16:45:42.236Z,101309.38
2023-05-21T16:50:46.451Z,101302.31
2023-05-21T16:55:49.094Z,101302.19
2023-05-21T17:00:51.605Z,101302.53
2023-05-21T17:05:54.520Z,101303.31
2023-05-21T17:10:57.188Z,101310.16
2023-05-21T17:15:59.735Z,101306.00
2023-05-21T17:21:02.254Z,101307.16
2023-05-21T17:26:07.278Z,101305.53
2023-05-21T17:31:10.388Z,101306.28
2023-05-21T17:41:16.711Z,101318.81
2023-05-21T17:46:19.148Z,101323.91
2023-05-21T17:51:21.646Z,101327.47
2023-05-21T17:56:24.810Z,101325.28
2023-05-21T18:01:27.376Z,101322.72
2023-05-21T18:06:30.467Z,101323.88
2023-05-21T18:11:33.024Z,101329.88
2023-05-21T18:16:35.593Z,101316.91
2023-05-21T18:21:38.456Z,101316.56
2023-05-21T18:26:40.993Z,101313.25
2023-05-21T18:31:46.555Z,101317.56
2023-05-21T18:36:49.762Z,101321.53
2023-05-21T18:42:01.613Z,101311.66
2023-05-21T18:47:14.224Z,101311.59
2023-05-21T18:52:16.757Z,101309.47
2023-05-21T18:57:19.473Z,101309.03
2023-05-21T19:02:23.697Z,101304.06
2023-05-21T19:07:26.347Z,101304.94
2023-05-21T19:12:31.585Z,101297.56
2023-05-21T19:17:35.397Z,101299.88
2023-05-21T19:22:39.184Z,101308.28
2023-05-21T19:27:41.678Z,101302.09
2023-05-21T19:32:44.309Z,101304.03
2023-05-21T19:37:47.158Z,101296.72
2023-05-21T19:42:49.591Z,101295.84
2023-05-21T19:47:52.066Z,101282.69
2023-05-21T19:52:55.548Z,101285.00
2023-05-21T19:57:58.046Z,101285.25
2023-05-21T20:03:00.638Z,101284.19
2023-05-21T20:08:04.142Z,101277.19
2023-05-21T20:13:07.269Z,101283.88
2023-05-21T20:18:10.469Z,101271.84
2023-05-21T20:23:13.281Z,101283.13
2023-05-21T20:28:16.203Z,101282.13
2023-05-21T20:33:19.351Z,101268.41
2023-05-21T20:38:21.768Z,101270.66
2023-05-21T20:43:24.801Z,101271.16
2023-05-21T20:48:32.220Z,101265.28
2023-05-21T20:53:34.755Z,101276.38
2023-05-21T20:58:37.184Z,101268.25
2023-05-21T21:03:41.647Z,101266.59
2023-05-21T21:08:50.368Z,101271.34
2023-05-21T21:13:52.914Z,101262.41
2023-05-21T21:18:55.563Z,101262.34
2023-05-21T21:23:58.079Z,101262.84
2023-05-21T21:29:00.945Z,101260.63
2023-05-21T21:34:03.679Z,101261.81
2023-05-21T21:39:06.277Z,101256.41
2023-05-21T21:44:09.029Z,101253.84
2023-05-21T21:49:11.444Z,101253.63
2023-05-21T21:54:14.098Z,101261.69
2023-05-21T21:59:16.552Z,101262.53
2023-05-21T22:04:19.105Z,101262.31
2023-05-21T22:09:22.847Z,101263.63
2023-05-21T22:14:25.343Z,101255.47
2023-05-21T22:19:28.480Z,101243.91
2023-05-21T22:24:32.427Z,101261.16
2023-05-21T22:29:35.774Z,101258.88
2023-05-21T22:34:38.527Z,101253.84
2023-05-21T22:39:40.983Z,101250.66
2023-05-21T22:44:43.574Z,101243.97
2023-05-21T22:49:46.414Z,101243.63
2023-05-21T22:54:49.527Z,101256.41
2023-05-21T22:59:51.952Z,101257.69
2023-05-21T23:04:54.438Z,101252.94
2023-05-21T23:09:56.972Z,101256.22
2023-05-21T23:14:59.347Z,101276.31
2023-05-21T23:20:01.924Z,101263.97
2023-05-21T23:25:06.850Z,101277.50
2023-05-21T23:30:09.694Z,101275.91
2023-05-21T23:35:14.656Z,101273.91
2023-05-21T23:40:21.152Z,101278.28
2023-05-21T23:45:23.952Z,101264.41
2023-05-21T23:50:26.623Z,101271.63
2023-05-21T23:55:29.217Z,101269.88
